Daily Summary for November 23, 2020 Units:  Metric    English   Both
Daily Weekly Monthly Yearly
  High: Low: Average:
Temperature: 22.8 °C 13.9 °C 17.5 °C
Dew Point: 17.3 °C 11.8 °C 15.5 °C
Humidity: 96% 62% 88%
Wind Speed: 21.2km/h 0km/h 6.6km/h
Wind Gust: 56.3km/h - -
Wind- - SW
Pressure: 1012.2 hPa 1002.7 hPa -
Precipitation: 32.0 mm    
 
 
Tabular Data for November 23, 2020
Time Temperature Dew Point Pressure Wind Wind Speed Wind Gust Humidity Rainfall Rate (Hourly) solar
00:04 17.9 °C 16.1 °C 1010.0 hPa SE 4.6 km/h 14.5 km/h 89.5% 0.0 mm 0 W/m2
00:09 17.8 °C 16.2 °C 1009.9 hPa SE 4.5 km/h 9.7 km/h 90% 0.0 mm 0 W/m2
00:14 17.9 °C 16.2 °C 1009.9 hPa SSE 3.2 km/h 14.5 km/h 90% 0.0 mm 0 W/m2
00:19 17.8 °C 16.1 °C 1009.9 hPa SSW 5.1 km/h 19.3 km/h 90% 0.0 mm 0 W/m2
00:24 17.7 °C 16 °C 1009.9 hPa SSW 7.7 km/h 19.3 km/h 90% 0.0 mm 0 W/m2
00:29 17.6 °C 16 °C 1010.0 hPa SSW 7.4 km/h 19.3 km/h 90.2% 0.2 mm 0 W/m2
00:34 17.6 °C 16.1 °C 1010.4 hPa SSW 5.8 km/h 17.7 km/h 91% 0.5 mm 0 W/m2
00:39 17.5 °C 16 °C 1011.4 hPa SW 5.1 km/h 30.6 km/h 91% 0.5 mm 0 W/m2
00:44 17.5 °C 16 °C 1011.9 hPa WSW 11.3 km/h 33.8 km/h 91% 1.5 mm 0 W/m2
00:49 17.4 °C 15.9 °C 1012.0 hPa WSW 17.1 km/h 33.8 km/h 91.1% 5.3 mm 0 W/m2
00:54 17.3 °C 16 °C 1012.1 hPa WSW 16.1 km/h 33.8 km/h 92% 8.1 mm 0 W/m2
00:59 17.2 °C 15.8 °C 1012.1 hPa WSW 13.2 km/h 29 km/h 92% 10.7 mm 0 W/m2
01:04 17.1 °C 15.7 °C 1012.2 hPa WSW 11.3 km/h 29 km/h 92% 12.7 mm 0 W/m2
01:09 17 °C 15.7 °C 1011.9 hPa WSW 8 km/h 19.3 km/h 92.2% 13.7 mm 0 W/m2
01:14 16.9 °C 15.8 °C 1011.1 hPa SW 4.5 km/h 19.3 km/h 93% 14.2 mm 0 W/m2
01:19 16.9 °C 15.7 °C 1011.2 hPa SSW 1.9 km/h 8 km/h 93% 14.7 mm 0 W/m2
01:24 16.8 °C 15.7 °C 1011.1 hPa South 2.6 km/h 6.4 km/h 93% 15.0 mm 0 W/m2
01:29 16.9 °C 15.7 °C 1011.0 hPa SSE 3.2 km/h 6.4 km/h 93% 15.2 mm 0 W/m2
01:34 16.9 °C 15.7 °C 1010.9 hPa SSE 2.6 km/h 6.4 km/h 93% 15.5 mm 0 W/m2
01:39 16.9 °C 15.8 °C 1010.7 hPa SE 1.6 km/h 4.8 km/h 93.6% 15.8 mm 0 W/m2
01:44 16.8 °C 15.9 °C 1010.6 hPa ESE 1.6 km/h 4.8 km/h 94% 16.0 mm 0 W/m2
01:49 16.8 °C 15.8 °C 1010.5 hPa ESE 1.6 km/h 4.8 km/h 94% 14.7 mm 0 W/m2
01:54 16.8 °C 15.8 °C 1010.5 hPa ESE 2.6 km/h 4.8 km/h 94% 11.4 mm 0 W/m2
01:59 16.8 °C 15.9 °C 1010.5 hPa ESE 1.6 km/h 4.8 km/h 94% 7.9 mm 0 W/m2
02:04 16.8 °C 15.8 °C 1010.6 hPa East 1.6 km/h 4.8 km/h 94% 6.6 mm 0 W/m2
02:09 16.8 °C 15.9 °C 1010.7 hPa East 2.6 km/h 4.8 km/h 94% 4.3 mm 0 W/m2
02:14 16.9 °C 15.9 °C 1010.7 hPa ENE 3.2 km/h 4.8 km/h 94% 3.8 mm 0 W/m2
02:19 16.9 °C 15.9 °C 1010.7 hPa NE 3.2 km/h 4.8 km/h 94% 4.1 mm 0 W/m2
02:24 16.9 °C 15.9 °C 1010.4 hPa NE 3.2 km/h 4.8 km/h 94% 4.6 mm 0 W/m2
02:29 16.9 °C 15.9 °C 1010.5 hPa NE 3.2 km/h 4.8 km/h 94% 4.8 mm 0 W/m2
02:34 16.9 °C 15.9 °C 1010.5 hPa NE 1.6 km/h 4.8 km/h 94% 5.1 mm 0 W/m2
02:39 16.9 °C 16 °C 1010.3 hPa NNE 1.6 km/h 4.8 km/h 94.4% 5.1 mm 0 W/m2
02:44 16.9 °C 16.1 °C 1009.9 hPa NNE 1.6 km/h 4.8 km/h 95% 5.1 mm 0 W/m2
02:49 16.9 °C 16.1 °C 1009.8 hPa NE 2.3 km/h 8 km/h 94.9% 5.8 mm 0 W/m2
02:54 16.9 °C 16 °C 1009.6 hPa NE 3.2 km/h 8 km/h 94.9% 6.1 mm 0 W/m2
02:59 16.9 °C 16.1 °C 1009.0 hPa ENE 3.2 km/h 9.7 km/h 95% 6.3 mm 0 W/m2
03:04 16.9 °C 16.1 °C 1008.8 hPa East 3.2 km/h 9.7 km/h 95% 7.1 mm 0 W/m2
03:09 16.9 °C 16.1 °C 1008.8 hPa East 3.2 km/h 9.7 km/h 95% 7.4 mm 0 W/m2
03:14 16.9 °C 16.1 °C 1008.4 hPa East 3.2 km/h 9.7 km/h 95% 7.4 mm 0 W/m2
03:19 16.9 °C 16 °C 1008.3 hPa East 3.2 km/h 9.7 km/h 95% 7.1 mm 0 W/m2
03:24 16.9 °C 16.1 °C 1008.3 hPa East 1.6 km/h 9.7 km/h 95% 6.3 mm 0 W/m2
03:29 16.9 °C 16.1 °C 1008.2 hPa ESE 1.6 km/h 4.8 km/h 95% 5.3 mm 0 W/m2
03:34 16.9 °C 16.1 °C 1008.2 hPa ESE 1.6 km/h 4.8 km/h 95% 5.1 mm 0 W/m2
03:39 16.9 °C 16 °C 1008.3 hPa East 1.6 km/h 6.4 km/h 95% 4.3 mm 0 W/m2
03:44 16.8 °C 16 °C 1008.3 hPa NNE 2.9 km/h 6.4 km/h 95% 3.6 mm 0 W/m2
03:49 16.8 °C 16 °C 1008.3 hPa North 4.5 km/h 11.3 km/h 95% 3.0 mm 0 W/m2
03:54 16.8 °C 16 °C 1008.1 hPa NNE 5.5 km/h 14.5 km/h 95% 2.3 mm 0 W/m2
03:59 16.7 °C 15.9 °C 1008.1 hPa NNE 6.4 km/h 14.5 km/h 95% 2.0 mm 0 W/m2
04:04 16.6 °C 15.8 °C 1008.0 hPa North 4.2 km/h 14.5 km/h 95% 1.5 mm 0 W/m2
04:09 16.5 °C 15.7 °C 1008.0 hPa WNW 3.2 km/h 6.4 km/h 95% 0.8 mm 0 W/m2
04:14 16.5 °C 15.7 °C 1008.0 hPa WNW 3.2 km/h 9.7 km/h 95% 0.5 mm 0 W/m2
04:19 16.5 °C 15.7 °C 1007.9 hPa WNW 3.5 km/h 9.7 km/h 95% 0.2 mm 0 W/m2
04:24 16.5 °C 15.7 °C 1007.8 hPa West 3.2 km/h 9.7 km/h 95% 0.2 mm 0 W/m2
04:29 16.5 °C 15.8 °C 1007.7 hPa West 3.2 km/h 6.4 km/h 95% 0.2 mm 0 W/m2
04:34 16.6 °C 15.8 °C 1007.6 hPa West 1.6 km/h 4.8 km/h 95% 0.2 mm 0 W/m2
04:39 16.6 °C 15.8 °C 1007.6 hPa WNW 1.6 km/h 4.8 km/h 95% 0.0 mm 0 W/m2
04:44 16.5 °C 15.8 °C 1007.6 hPa WNW 1.9 km/h 4.8 km/h 95% 0.0 mm 0 W/m2
04:49 16.6 °C 15.8 °C 1007.6 hPa WNW 2.9 km/h 6.4 km/h 95% 0.0 mm 0 W/m2
04:54 16.6 °C 15.8 °C 1007.6 hPa NW 3.2 km/h 6.4 km/h 95% 0.0 mm 0 W/m2
04:59 16.5 °C 15.8 °C 1007.6 hPa NW 3.2 km/h 6.4 km/h 95% 0.0 mm 0 W/m2
05:04 16.5 °C 15.7 °C 1007.5 hPa WNW 3.2 km/h 6.4 km/h 95% 0.0 mm 0 W/m2
05:09 16.5 °C 15.7 °C 1007.5 hPa WNW 3.2 km/h 6.4 km/h 95% 0.0 mm 0 W/m2
05:14 16.5 °C 15.7 °C 1007.5 hPa WNW 3.2 km/h 6.4 km/h 95% 0.0 mm 0 W/m2
05:19 16.5 °C 15.7 °C 1007.5 hPa WNW 3.2 km/h 6.4 km/h 95% 0.2 mm 0 W/m2
05:24 16.5 °C 15.7 °C 1007.5 hPa WNW 1.9 km/h 6.4 km/h 95% 0.2 mm 0 W/m2
05:29 16.6 °C 15.8 °C 1007.5 hPa WNW 2.3 km/h 6.4 km/h 95.3% 0.2 mm 0 W/m2
05:34 16.6 °C 15.9 °C 1007.3 hPa WNW 1.6 km/h 6.4 km/h 95.8% 0.2 mm 0 W/m2
05:39 16.6 °C 15.8 °C 1007.4 hPa NW 2.3 km/h 6.4 km/h 95.2% 0.2 mm 0 W/m2
05:44 16.6 °C 15.8 °C 1007.5 hPa NW 3.2 km/h 6.4 km/h 95% 0.2 mm 0 W/m2
05:49 16.6 °C 15.9 °C 1007.4 hPa NW 3.2 km/h 6.4 km/h 95.7% 0.2 mm 0 W/m2
05:54 16.6 °C 15.9 °C 1007.3 hPa NW 3.2 km/h 6.4 km/h 95.8% 0.2 mm 0 W/m2
05:59 16.6 °C 15.9 °C 1007.4 hPa NW 3.2 km/h 6.4 km/h 96% 0.2 mm 7 W/m2
06:04 16.6 °C 15.9 °C 1007.4 hPa WNW 3.2 km/h 6.4 km/h 96% 0.2 mm 11 W/m2
06:09 16.6 °C 15.9 °C 1007.2 hPa NW 2.9 km/h 6.4 km/h 96% 0.2 mm 14 W/m2
06:14 16.6 °C 16 °C 1007.4 hPa NW 1.6 km/h 4.8 km/h 96% 0.2 mm 18 W/m2
06:19 16.6 °C 15.9 °C 1007.4 hPa NW 2.6 km/h 6.4 km/h 95.6% 0.2 mm 25 W/m2
06:24 16.7 °C 16 °C 1007.3 hPa NW 3.2 km/h 6.4 km/h 95.9% 0.0 mm 28 W/m2
06:29 16.7 °C 16 °C 1007.3 hPa NW 3.2 km/h 6.4 km/h 96% 0.0 mm 30 W/m2
06:34 16.7 °C 16.1 °C 1007.3 hPa NW 3.2 km/h 6.4 km/h 96% 0.0 mm 33 W/m2
06:39 16.7 °C 15.9 °C 1007.2 hPa WNW 3.2 km/h 6.4 km/h 95.2% 0.0 mm 37 W/m2
06:44 16.7 °C 16 °C 1007.2 hPa WNW 3.2 km/h 6.4 km/h 95.6% 0.0 mm 44 W/m2
06:49 16.7 °C 16.1 °C 1007.3 hPa WNW 3.2 km/h 6.4 km/h 96% 0.0 mm 42 W/m2
06:54 16.8 °C 16.1 °C 1007.4 hPa WNW 3.2 km/h 4.8 km/h 96% 0.0 mm 44 W/m2
06:59 16.8 °C 16.2 °C 1007.6 hPa WNW 3.2 km/h 6.4 km/h 96% 0.0 mm 49 W/m2
07:04 16.9 °C 16.2 °C 1007.5 hPa NW 3.2 km/h 6.4 km/h 96% 0.0 mm 70 W/m2
07:09 16.9 °C 16.3 °C 1007.5 hPa NNW 3.9 km/h 8 km/h 96% 0.0 mm 83 W/m2
07:14 17 °C 16.3 °C 1007.5 hPa North 4.8 km/h 9.7 km/h 96% 0.0 mm 88 W/m2
07:19 16.9 °C 16.3 °C 1007.6 hPa North 5.8 km/h 9.7 km/h 96% 0.0 mm 91 W/m2
07:24 17 °C 16.3 °C 1007.6 hPa NNW 5.8 km/h 9.7 km/h 96% 0.0 mm 100 W/m2
07:29 17.1 °C 16.4 °C 1007.7 hPa NNW 4.8 km/h 9.7 km/h 96% 0.0 mm 90 W/m2
07:34 17.1 °C 16.2 °C 1007.9 hPa NW 4.8 km/h 8 km/h 95% 0.0 mm 63 W/m2
07:39 17.1 °C 16.3 °C 1008.0 hPa NW 3.9 km/h 8 km/h 95% 0.0 mm 47 W/m2
07:44 17.1 °C 16.4 °C 1008.1 hPa NW 3.2 km/h 11.3 km/h 95.3% 0.0 mm 44 W/m2
07:49 17.1 °C 16.3 °C 1008.2 hPa NW 4.5 km/h 11.3 km/h 95% 0.0 mm 37 W/m2
07:54 17.1 °C 16.3 °C 1008.2 hPa WNW 4.2 km/h 11.3 km/h 95% 0.2 mm 72 W/m2
07:59 17.2 °C 16.4 °C 1008.1 hPa WNW 3.2 km/h 9.7 km/h 95.2% 0.2 mm 90 W/m2
08:04 17.2 °C 16.5 °C 1007.9 hPa NW 3.2 km/h 9.7 km/h 95.8% 0.2 mm 109 W/m2
08:09 17.4 °C 16.7 °C 1007.6 hPa NNW 3.2 km/h 12.9 km/h 96% 0.5 mm 120 W/m2
08:14 17.4 °C 16.7 °C 1007.1 hPa North 5.1 km/h 16.1 km/h 95.5% 0.5 mm 148 W/m2
08:19 17.4 °C 16.6 °C 1007.1 hPa NNE 7.1 km/h 16.1 km/h 95% 0.5 mm 148 W/m2
08:24 17.4 °C 16.6 °C 1007.0 hPa North 8 km/h 16.1 km/h 95% 0.5 mm 141 W/m2
08:29 17.4 °C 16.6 °C 1006.5 hPa NNE 9.7 km/h 20.9 km/h 95% 0.5 mm 127 W/m2
08:34 17.4 °C 16.6 °C 1007.1 hPa North 11.3 km/h 29 km/h 95% 0.5 mm 162 W/m2
08:39 17.4 °C 16.6 °C 1007.1 hPa NNW 11.3 km/h 29 km/h 95% 0.5 mm 185 W/m2
08:44 17.5 °C 16.6 °C 1007.0 hPa NNW 11.3 km/h 29 km/h 95% 0.5 mm 176 W/m2
08:49 17.5 °C 16.6 °C 1006.8 hPa NNW 12.6 km/h 22.5 km/h 95% 0.5 mm 128 W/m2
08:54 17.5 °C 16.7 °C 1006.6 hPa NNW 11.6 km/h 22.5 km/h 95% 0.2 mm 193 W/m2
08:59 17.5 °C 16.7 °C 1006.5 hPa NNW 10 km/h 20.9 km/h 95% 0.2 mm 285 W/m2
09:04 17.7 °C 16.8 °C 1006.5 hPa NNW 10.6 km/h 20.9 km/h 95% 0.2 mm 285 W/m2
09:09 17.8 °C 16.9 °C 1006.7 hPa NNW 11.6 km/h 24.1 km/h 95% 0.2 mm 292 W/m2
09:14 17.8 °C 17 °C 1006.7 hPa NW 13.8 km/h 29 km/h 95% 0.0 mm 339 W/m2
09:19 18 °C 17.2 °C 1006.5 hPa NW 14.8 km/h 30.6 km/h 95% 0.0 mm 584 W/m2
09:24 18.1 °C 17.1 °C 1006.5 hPa NW 16.1 km/h 33.8 km/h 94% 0.0 mm 485 W/m2
09:29 18.3 °C 17.3 °C 1006.4 hPa NW 17.1 km/h 33.8 km/h 93.9% 0.0 mm 366 W/m2
09:34 18.4 °C 17.2 °C 1006.4 hPa NW 16.7 km/h 33.8 km/h 93% 0.0 mm 376 W/m2
09:39 18.5 °C 17.3 °C 1006.6 hPa NW 13.5 km/h 33.8 km/h 93.3% 0.0 mm 345 W/m2
09:44 18.4 °C 17.3 °C 1006.5 hPa NNW 11.9 km/h 25.7 km/h 93% 0.0 mm 290 W/m2
09:49 18.4 °C 17.1 °C 1006.4 hPa NW 12.2 km/h 25.7 km/h 92.5% 0.0 mm 262 W/m2
09:54 18.5 °C 17.2 °C 1006.0 hPa NNW 12.2 km/h 24.1 km/h 92.3% 0.0 mm 230 W/m2
09:59 18.5 °C 17.2 °C 1006.2 hPa NNW 10.9 km/h 20.9 km/h 92% 0.0 mm 197 W/m2
10:04 18.5 °C 17.2 °C 1006.3 hPa NNW 9.7 km/h 19.3 km/h 92% 0.0 mm 158 W/m2
10:09 18.6 °C 17.2 °C 1006.0 hPa NNW 8.7 km/h 19.3 km/h 92% 0.0 mm 193 W/m2
10:14 18.5 °C 17.2 °C 1005.8 hPa North 8 km/h 17.7 km/h 92% 0.0 mm 141 W/m2
10:19 18.4 °C 17.1 °C 1005.9 hPa NW 9.7 km/h 17.7 km/h 92% 0.0 mm 174 W/m2
10:24 18.4 °C 17.1 °C 1006.0 hPa WNW 9.7 km/h 17.7 km/h 92% 0.0 mm 179 W/m2
10:29 18.5 °C 17.1 °C 1006.0 hPa NW 9.7 km/h 22.5 km/h 91.8% 0.0 mm 318 W/m2
10:34 18.7 °C 17.2 °C 1005.9 hPa NW 9.7 km/h 22.5 km/h 91% 0.0 mm 318 W/m2
10:39 18.8 °C 17.1 °C 1005.9 hPa NW 9.7 km/h 19.3 km/h 89.4% 0.0 mm 248 W/m2
10:44 18.9 °C 17 °C 1005.6 hPa NW 9.7 km/h 19.3 km/h 88.8% 0.0 mm 246 W/m2
10:49 18.9 °C 16.9 °C 1005.5 hPa NNW 9.7 km/h 20.9 km/h 88.1% 0.0 mm 253 W/m2
10:54 18.9 °C 17 °C 1005.5 hPa NNW 11.3 km/h 22.5 km/h 88.4% 0.0 mm 271 W/m2
10:59 18.9 °C 17.1 °C 1005.4 hPa NNW 12.9 km/h 22.5 km/h 89% 0.0 mm 322 W/m2
11:04 19 °C 17.1 °C 1005.2 hPa NNW 12.9 km/h 24.1 km/h 88.7% 0.0 mm 257 W/m2
11:09 19.1 °C 17.1 °C 1005.3 hPa NNW 11.6 km/h 24.1 km/h 88.2% 0.0 mm 320 W/m2
11:14 19 °C 16.9 °C 1005.5 hPa NW 13.5 km/h 32.2 km/h 87.4% 0.0 mm 248 W/m2
11:19 19.1 °C 16.8 °C 1005.5 hPa NW 15.7 km/h 32.2 km/h 87.1% 0.0 mm 501 W/m2
11:24 19.3 °C 17.1 °C 1005.2 hPa NW 16.1 km/h 32.2 km/h 87.1% 0.0 mm 501 W/m2
11:29 19.3 °C 16.9 °C 1005.3 hPa NW 16.1 km/h 30.6 km/h 86% 0.0 mm 353 W/m2
11:34 19 °C 16.8 °C 1005.3 hPa NW 17.1 km/h 30.6 km/h 87.2% 0.0 mm 422 W/m2
11:39 18.9 °C 16.9 °C 1005.0 hPa NW 16.7 km/h 29 km/h 88.5% 0.0 mm 522 W/m2
11:44 19.2 °C 17.2 °C 1004.8 hPa NW 14.8 km/h 27.4 km/h 88.4% 0.0 mm 571 W/m2
11:49 19.4 °C 17.3 °C 1004.7 hPa NNW 12.9 km/h 30.6 km/h 87.3% 0.0 mm 343 W/m2
11:54 19.4 °C 17 °C 1004.9 hPa NNW 13.2 km/h 30.6 km/h 86% 0.0 mm 142 W/m2
11:59 19.4 °C 16.8 °C 1004.9 hPa NW 15.1 km/h 33.8 km/h 85.1% 0.0 mm 209 W/m2
12:04 19.4 °C 16.7 °C 1004.8 hPa NW 16.7 km/h 33.8 km/h 84.3% 0.0 mm 279 W/m2
12:09 19.6 °C 16.6 °C 1004.8 hPa NW 18.6 km/h 33.8 km/h 83.2% 0.0 mm 355 W/m2
12:14 19.7 °C 16.6 °C 1004.7 hPa NW 19 km/h 40.2 km/h 82.4% 0.2 mm 316 W/m2
12:19 19.9 °C 16.8 °C 1004.4 hPa NW 16.8 km/h 40.2 km/h 82.2% 0.2 mm 371 W/m2
12:24 20.1 °C 16.8 °C 1004.4 hPa NW 13.5 km/h 40.2 km/h 81.3% 0.2 mm 515 W/m2
12:29 20.2 °C 16.3 °C 1004.2 hPa NW 15.7 km/h 38.6 km/h 78.5% 0.2 mm 563 W/m2
12:34 20.3 °C 16 °C 1004.1 hPa NW 19.9 km/h 38.6 km/h 76.5% 0.2 mm 517 W/m2
12:39 20.2 °C 16.1 °C 1004.2 hPa NW 19.3 km/h 38.6 km/h 77% 0.2 mm 250 W/m2
12:44 20.1 °C 15.9 °C 1004.2 hPa NW 19.9 km/h 43.5 km/h 76.8% 0.2 mm 269 W/m2
12:49 20 °C 15.8 °C 1004.1 hPa NW 21.2 km/h 43.5 km/h 77% 0.2 mm 135 W/m2
12:54 19.8 °C 15.9 °C 1004.3 hPa NW 19.4 km/h 43.5 km/h 78.1% 0.2 mm 98 W/m2
12:59 19.8 °C 15.9 °C 1004.6 hPa NW 16.1 km/h 43.5 km/h 78.5% 0.2 mm 102 W/m2
13:04 19.7 °C 16 °C 1004.9 hPa NW 15.1 km/h 37 km/h 79% 0.2 mm 90 W/m2
13:09 19.6 °C 15.1 °C 1006.5 hPa WNW 16.7 km/h 56.3 km/h 75.5% 0.2 mm 40 W/m2
13:14 18 °C 12.7 °C 1006.7 hPa WSW 19.9 km/h 56.3 km/h 71.1% 1.3 mm 19 W/m2
13:19 16 °C 12.2 °C 1006.5 hPa SW 18.7 km/h 56.3 km/h 78.4% 3.6 mm 44 W/m2
13:24 14.5 °C 11.8 °C 1006.2 hPa WSW 13 km/h 41.8 km/h 84% 5.1 mm 100 W/m2
13:29 13.9 °C 11.9 °C 1005.9 hPa WSW 9.4 km/h 29 km/h 87.8% 5.1 mm 160 W/m2
13:34 14 °C 12.4 °C 1005.2 hPa WSW 6.8 km/h 22.5 km/h 90.3% 5.6 mm 185 W/m2
13:39 14.2 °C 12.7 °C 1005.0 hPa SW 4.6 km/h 14.5 km/h 90.8% 5.6 mm 169 W/m2
13:44 14.3 °C 12.9 °C 1004.8 hPa SSW 2.9 km/h 14.5 km/h 91.2% 5.8 mm 128 W/m2
13:49 14.4 °C 12.9 °C 1004.8 hPa South 1.6 km/h 8 km/h 90.8% 5.8 mm 84 W/m2
13:54 14.4 °C 12.9 °C 1004.8 hPa SSW 1.6 km/h 4.8 km/h 91% 5.8 mm 127 W/m2
13:59 14.5 °C 13.1 °C 1004.5 hPa South 1.6 km/h 6.4 km/h 91.3% 5.8 mm 221 W/m2
14:04 14.5 °C 13.1 °C 1004.5 hPa East 1.6 km/h 6.4 km/h 91.5% 5.8 mm 230 W/m2
14:09 14.7 °C 13.4 °C 1004.1 hPa NE 1.9 km/h 6.4 km/h 92% 5.8 mm 195 W/m2
14:14 14.9 °C 13.6 °C 1004.1 hPa NE 1.9 km/h 4.8 km/h 92.2% 5.8 mm 199 W/m2
14:19 15 °C 13.7 °C 1004.2 hPa NE 3.2 km/h 6.4 km/h 92% 4.3 mm 144 W/m2
14:24 15 °C 13.7 °C 1004.2 hPa NNE 3.8 km/h 16.1 km/h 91.8% 1.5 mm 70 W/m2
14:29 15 °C 13.6 °C 1004.2 hPa NNE 6.1 km/h 16.1 km/h 91.5% 0.5 mm 77 W/m2
14:34 14.9 °C 13.5 °C 1004.2 hPa NNE 7.4 km/h 19.3 km/h 91% 0.5 mm 163 W/m2
14:39 15 °C 13.5 °C 1004.0 hPa NNE 9.3 km/h 19.3 km/h 91% 0.2 mm 311 W/m2
14:44 15.1 °C 13.7 °C 1003.8 hPa NNE 9.7 km/h 19.3 km/h 91% 0.2 mm 366 W/m2
14:49 15.4 °C 13.9 °C 1003.6 hPa NNE 8.7 km/h 24.1 km/h 91% 0.0 mm 399 W/m2
14:54 15.5 °C 13.9 °C 1003.5 hPa NNE 11.2 km/h 24.1 km/h 90.3% 0.0 mm 401 W/m2
14:59 15.6 °C 14 °C 1003.5 hPa NNE 12.9 km/h 24.1 km/h 90.2% 0.0 mm 911 W/m2
15:04 16.5 °C 15 °C 1003.4 hPa NNE 10.4 km/h 19.3 km/h 90.8% 0.0 mm 911 W/m2
15:09 17 °C 15 °C 1003.1 hPa NNE 7.4 km/h 19.3 km/h 87.7% 0.0 mm 693 W/m2
15:14 17 °C 14.7 °C 1003.2 hPa NNE 7.1 km/h 16.1 km/h 86.3% 0.0 mm 652 W/m2
15:19 17 °C 14.7 °C 1003.1 hPa North 6.5 km/h 16.1 km/h 86.7% 0.0 mm 540 W/m2
15:24 17.3 °C 14.9 °C 1003.2 hPa North 6.7 km/h 17.7 km/h 86.2% 0.0 mm 527 W/m2
15:29 17.3 °C 14.8 °C 1003.2 hPa North 9 km/h 19.3 km/h 85.3% 0.0 mm 466 W/m2
15:34 17.1 °C 14.8 °C 1003.2 hPa North 10.9 km/h 19.3 km/h 86.2% 0.0 mm 450 W/m2
15:39 17.1 °C 14.6 °C 1003.1 hPa NNW 10 km/h 22.5 km/h 85.7% 0.0 mm 468 W/m2
15:44 17.1 °C 14.8 °C 1003.1 hPa North 10.9 km/h 22.5 km/h 86.2% 0.0 mm 438 W/m2
15:49 16.9 °C 14.6 °C 1002.9 hPa North 11.9 km/h 22.5 km/h 86.2% 0.0 mm 443 W/m2
15:54 16.8 °C 14.6 °C 1002.7 hPa NNW 11.3 km/h 22.5 km/h 87% 0.0 mm 443 W/m2
15:59 16.8 °C 14.8 °C 1002.7 hPa NW 11.3 km/h 22.5 km/h 87.6% 0.0 mm 441 W/m2
16:04 17.1 °C 15.1 °C 1002.9 hPa NW 10.3 km/h 22.5 km/h 87.5% 0.0 mm 450 W/m2
16:09 17.2 °C 15.1 °C 1002.9 hPa NNW 10.6 km/h 22.5 km/h 87.2% 0.0 mm 471 W/m2
16:14 17.3 °C 15 °C 1002.8 hPa NNW 11.2 km/h 24.1 km/h 86.7% 0.0 mm 536 W/m2
16:19 17.5 °C 15.3 °C 1002.9 hPa NNW 10.9 km/h 24.1 km/h 86.9% 0.0 mm 905 W/m2
16:24 18.1 °C 15.5 °C 1003.0 hPa NNW 11.3 km/h 24.1 km/h 84.5% 0.0 mm 872 W/m2
16:29 18.6 °C 15.6 °C 1003.2 hPa NNW 11.9 km/h 29 km/h 82.4% 0.0 mm 689 W/m2
16:34 18.7 °C 15.6 °C 1003.2 hPa NNW 14.4 km/h 29 km/h 81.8% 0.0 mm 650 W/m2
16:39 19.1 °C 15.6 °C 1003.1 hPa NNW 16.4 km/h 29 km/h 80.5% 0.0 mm 624 W/m2
16:44 19.5 °C 16 °C 1003.1 hPa North 15.1 km/h 29 km/h 80.2% 0.0 mm 599 W/m2
16:49 19.4 °C 15.9 °C 1003.2 hPa North 13.9 km/h 29 km/h 80% 0.0 mm 570 W/m2
16:54 19.2 °C 15.5 °C 1003.2 hPa NNW 13.8 km/h 27.4 km/h 79.4% 0.0 mm 533 W/m2
16:59 19 °C 15.6 °C 1003.2 hPa NW 14.8 km/h 30.6 km/h 80.3% 0.0 mm 485 W/m2
17:04 19 °C 15.5 °C 1003.3 hPa NW 16.1 km/h 30.6 km/h 80.4% 0.0 mm 459 W/m2
17:09 19.3 °C 15.9 °C 1003.3 hPa NW 16.1 km/h 30.6 km/h 80.8% 0.0 mm 431 W/m2
17:14 19.7 °C 16 °C 1003.1 hPa NW 14.5 km/h 29 km/h 79.5% 0.0 mm 390 W/m2
17:19 19.9 °C 16 °C 1003.3 hPa NW 14.2 km/h 27.4 km/h 78.2% 0.0 mm 397 W/m2
17:24 19.8 °C 15.7 °C 1003.2 hPa NW 14.8 km/h 27.4 km/h 77.2% 0.0 mm 390 W/m2
17:29 20 °C 15.9 °C 1003.3 hPa NW 15.4 km/h 27.4 km/h 77.1% 0.0 mm 357 W/m2
17:34 19.9 °C 15.8 °C 1003.2 hPa NW 14.5 km/h 27.4 km/h 77.3% 0.0 mm 244 W/m2
17:39 19.7 °C 15.8 °C 1003.4 hPa NW 14.5 km/h 27.4 km/h 78% 0.0 mm 348 W/m2
17:44 20 °C 15.8 °C 1003.6 hPa NNW 12.2 km/h 27.4 km/h 77.1% 0.0 mm 352 W/m2
17:49 20.1 °C 15.7 °C 1003.6 hPa NNW 9.3 km/h 22.5 km/h 75.7% 0.0 mm 220 W/m2
17:54 20 °C 15.7 °C 1003.6 hPa NNW 7.4 km/h 20.9 km/h 76.2% 0.0 mm 244 W/m2
17:59 19.8 °C 15.6 °C 1003.6 hPa NW 7.7 km/h 19.3 km/h 76.3% 0.0 mm 244 W/m2
18:04 20 °C 15.4 °C 1003.9 hPa NW 7.4 km/h 19.3 km/h 75.1% 0.0 mm 239 W/m2
18:09 20.2 °C 15.5 °C 1004.0 hPa NW 6.4 km/h 19.3 km/h 74.5% 0.0 mm 404 W/m2
18:14 20.7 °C 15.8 °C 1004.0 hPa NW 6.4 km/h 16.1 km/h 73.6% 0.0 mm 353 W/m2
18:19 21.7 °C 15.8 °C 1004.3 hPa NW 5.5 km/h 16.1 km/h 69% 0.0 mm 279 W/m2
18:24 22.8 °C 15.1 °C 1004.3 hPa NW 2.9 km/h 11.3 km/h 62% 0.0 mm 230 W/m2
18:29 22.7 °C 15.7 °C 1004.4 hPa SW 1.6 km/h 11.3 km/h 64.6% 0.0 mm 174 W/m2
18:34 21.9 °C 15.8 °C 1004.4 hPa ESE 2.9 km/h 11.3 km/h 68.4% 0.0 mm 53 W/m2
18:39 21.2 °C 15.7 °C 1004.4 hPa East 4.5 km/h 11.3 km/h 70.6% 0.0 mm 51 W/m2
18:44 20.9 °C 15.9 °C 1004.6 hPa East 3.2 km/h 11.3 km/h 73% 0.0 mm 46 W/m2
18:49 20.7 °C 15.6 °C 1004.7 hPa East 3.2 km/h 11.3 km/h 72.5% 0.0 mm 49 W/m2
18:54 20.4 °C 15.6 °C 1004.8 hPa East 3.2 km/h 11.3 km/h 73.9% 0.0 mm 51 W/m2
18:59 20.1 °C 15.4 °C 1004.9 hPa East 2.2 km/h 12.9 km/h 74.3% 0.0 mm 51 W/m2
19:04 20 °C 15.3 °C 1004.8 hPa East 1.9 km/h 12.9 km/h 74.3% 0.0 mm 44 W/m2
19:09 19.7 °C 15.3 °C 1005.0 hPa East 2.3 km/h 12.9 km/h 75.4% 0.0 mm 33 W/m2
19:14 19.6 °C 15.3 °C 1005.1 hPa East 2.3 km/h 6.4 km/h 76% 0.0 mm 26 W/m2
19:19 19.6 °C 15.3 °C 1005.2 hPa ESE 3.2 km/h 6.4 km/h 76% 0.0 mm 26 W/m2
19:24 19.5 °C 15.3 °C 1005.3 hPa SE 2.9 km/h 6.4 km/h 76.9% 0.0 mm 26 W/m2
19:29 19.3 °C 15.3 °C 1005.4 hPa ESE 1.6 km/h 9.7 km/h 77.7% 0.0 mm 23 W/m2
19:34 19.1 °C 15.1 °C 1005.6 hPa ENE 2.9 km/h 9.7 km/h 78% 0.0 mm 21 W/m2
19:39 18.9 °C 15.3 °C 1005.7 hPa NE 3.5 km/h 9.7 km/h 79.3% 0.0 mm 16 W/m2
19:44 18.8 °C 15.3 °C 1005.7 hPa NE 4.8 km/h 9.7 km/h 80% 0.0 mm 11 W/m2
19:49 18.7 °C 15.3 °C 1005.9 hPa NE 3.2 km/h 8 km/h 80.6% 0.0 mm 7 W/m2
19:54 18.5 °C 15.2 °C 1006.0 hPa NE 2.3 km/h 6.4 km/h 81% 0.0 mm 0 W/m2
19:59 18.4 °C 15.2 °C 1006.2 hPa NNE 2.3 km/h 14.5 km/h 81.4% 0.0 mm 0 W/m2
20:04 18.3 °C 15.2 °C 1006.2 hPa NNE 4.5 km/h 14.5 km/h 82% 0.0 mm 0 W/m2
20:09 18.2 °C 15.1 °C 1006.3 hPa NE 5.1 km/h 14.5 km/h 82% 0.0 mm 0 W/m2
20:14 18.1 °C 15.1 °C 1006.5 hPa NE 4.8 km/h 9.7 km/h 82.8% 0.0 mm 0 W/m2
20:19 18 °C 15 °C 1006.6 hPa NE 4.2 km/h 9.7 km/h 83% 0.0 mm 0 W/m2
20:24 17.9 °C 15.2 °C 1006.7 hPa NE 3.2 km/h 8 km/h 83.8% 0.0 mm 0 W/m2
20:29 17.9 °C 15.1 °C 1006.8 hPa NE 3.2 km/h 8 km/h 84% 0.0 mm 0 W/m2
20:34 17.8 °C 15.2 °C 1006.8 hPa NNE 2.9 km/h 6.4 km/h 84.3% 0.0 mm 0 W/m2
20:39 17.9 °C 15.2 °C 1006.8 hPa NNE 1.6 km/h 6.4 km/h 84.2% 0.0 mm 0 W/m2
20:44 17.8 °C 15.1 °C 1006.8 hPa NNE 0.3 km/h 3.2 km/h 84% 0.0 mm 0 W/m2
20:49 17.7 °C 15 °C 1006.8 hPa NNE 1.6 km/h 3.2 km/h 84.6% 0.0 mm 0 W/m2
20:54 17.7 °C 14.9 °C 1006.8 hPa NNE 1.6 km/h 3.2 km/h 84.1% 0.0 mm 0 W/m2
20:59 17.7 °C 15 °C 1006.9 hPa North 0.3 km/h 3.2 km/h 84.5% 0.0 mm 0 W/m2
21:04 17.5 °C 14.8 °C 1006.9 hPa NW 1.3 km/h 3.2 km/h 84% 0.0 mm 0 W/m2
21:09 17.4 °C 14.8 °C 1006.8 hPa NW 1.6 km/h 3.2 km/h 84.7% 0.0 mm 0 W/m2
21:14 17.2 °C 14.7 °C 1006.8 hPa NNW 1.6 km/h 4.8 km/h 85% 0.0 mm 0 W/m2
21:19 17.2 °C 14.5 °C 1006.9 hPa East 1.6 km/h 6.4 km/h 84.5% 0.0 mm 0 W/m2
21:24 17.1 °C 14.3 °C 1007.0 hPa SE 1.6 km/h 6.4 km/h 83.3% 0.0 mm 0 W/m2
21:29 17 °C 13.4 °C 1006.9 hPa SSE 1.6 km/h 8 km/h 79.5% 0.0 mm 0 W/m2
21:34 17 °C 12.8 °C 1007.0 hPa SE 1.6 km/h 8 km/h 76.3% 0.0 mm 0 W/m2
21:39 17.1 °C 12.5 °C 1007.1 hPa ESE 1.3 km/h 8 km/h 74.7% 0.0 mm 0 W/m2
21:44 16.9 °C 12.7 °C 1007.1 hPa Calm   3.2 km/h 76.3% 0.0 mm 0 W/m2
21:49 16.6 °C 13.1 °C 1007.4 hPa ESE 1 km/h 6.4 km/h 79.8% 0.0 mm 0 W/m2
21:54 16.3 °C 13.3 °C 1007.4 hPa NNE 3.2 km/h 8 km/h 82.6% 0.0 mm 0 W/m2
21:59 16.2 °C 13.6 °C 1007.4 hPa NW 4.8 km/h 8 km/h 84.4% 0.0 mm 0 W/m2
22:04 16.2 °C 13.8 °C 1007.5 hPa NW 3.9 km/h 8 km/h 85.4% 0.0 mm 0 W/m2
22:09 16.1 °C 13.8 °C 1007.5 hPa WNW 1.9 km/h 6.4 km/h 86.2% 0.0 mm 0 W/m2
22:14 16.1 °C 13.9 °C 1007.5 hPa WNW 1 km/h 4.8 km/h 86.7% 0.0 mm 0 W/m2
22:19 16 °C 13.8 °C 1007.6 hPa Calm   3.2 km/h 87.2% 0.0 mm 0 W/m2
22:24 15.7 °C 13.7 °C 1007.6 hPa Calm   3.2 km/h 87.8% 0.0 mm 0 W/m2
22:29 15.4 °C 13.5 °C 1007.6 hPa Calm   3.2 km/h 88.5% 0.0 mm 0 W/m2
22:34 15.4 °C 13.6 °C 1007.7 hPa Calm   3.2 km/h 89% 0.0 mm 0 W/m2
22:39 15.4 °C 13.7 °C 1007.8 hPa Calm   3.2 km/h 89% 0.0 mm 0 W/m2
22:44 15.4 °C 13.7 °C 1008.0 hPa Calm   1.6 km/h 89% 0.0 mm 0 W/m2
22:49 15.3 °C 13.5 °C 1008.0 hPa Calm   1.6 km/h 89% 0.0 mm 0 W/m2
22:54 15.2 °C 13.3 °C 1008.1 hPa Calm   3.2 km/h 88.5% 0.0 mm 0 W/m2
22:59 15.3 °C 13.3 °C 1008.2 hPa Calm   3.2 km/h 88% 0.0 mm 0 W/m2
23:04 15.3 °C 13.3 °C 1008.2 hPa Calm   3.2 km/h 88% 0.0 mm 0 W/m2
23:09 15 °C 13.3 °C 1008.3 hPa Calm   1.6 km/h 89.4% 0.0 mm 0 W/m2
23:14 14.8 °C 13.3 °C 1008.3 hPa Calm   1.6 km/h 90.6% 0.0 mm 0 W/m2
23:19 14.8 °C 13.3 °C 1008.3 hPa Calm   1.6 km/h 91% 0.0 mm 0 W/m2
23:24 14.8 °C 13.4 °C 1008.4 hPa Calm   3.2 km/h 91.2% 0.0 mm 0 W/m2
23:29 14.6 °C 13.1 °C 1008.3 hPa NW 1 km/h 3.2 km/h 91% 0.0 mm 0 W/m2
23:34 14.5 °C 13.1 °C 1008.4 hPa NW 1.6 km/h 3.2 km/h 91% 0.0 mm 0 W/m2
23:39 14.6 °C 13.1 °C 1008.4 hPa NW 0.6 km/h 3.2 km/h 91% 0.0 mm 0 W/m2
23:44 14.5 °C 12.9 °C 1008.4 hPa NW 0.3 km/h 3.2 km/h 90.4% 0.0 mm 0 W/m2
23:49 14.5 °C 12.9 °C 1008.4 hPa NW 1.6 km/h 3.2 km/h 90% 0.0 mm 0 W/m2
23:54 14.5 °C 12.8 °C 1008.4 hPa NW 1.6 km/h 3.2 km/h 89.4% 0.0 mm 0 W/m2
23:59 14.5 °C 12.7 °C 1008.4 hPa NW 1.6 km/h 3.2 km/h 89% 0.0 mm 0 W/m2
Compliments of Weather Underground - 1.5 mb

Latitude S 35° 13' 00" Longitude E 149° 01' 22" Elevation 577 m
Page updated 27/01/2021 2:15:01 AM.
Powered by Cumulus MX v3.2.0 (3056)